createdAt,value
2018-09-06T00:01:17.348Z,59.18
2018-09-06T00:03:46.392Z,58.23
2018-09-06T00:06:15.801Z,58.66
2018-09-06T00:08:45.256Z,58.71
2018-09-06T00:11:14.714Z,59.30
2018-09-06T00:13:43.917Z,59.49
2018-09-06T00:16:13.205Z,59.74
2018-09-06T00:18:42.487Z,59.13
2018-09-06T00:21:11.709Z,60.10
2018-09-06T00:23:41.094Z,59.62
2018-09-06T00:26:10.460Z,59.65
2018-09-06T00:28:39.483Z,59.32
2018-09-06T00:31:08.573Z,59.92
2018-09-06T00:33:37.800Z,59.36
2018-09-06T00:36:07.073Z,59.68
2018-09-06T00:38:36.385Z,60.00
2018-09-06T00:41:05.671Z,59.20
2018-09-06T00:43:35.151Z,59.67
2018-09-06T00:46:04.280Z,59.80
2018-09-06T00:48:33.629Z,59.53
2018-09-06T00:51:02.940Z,60.16
2018-09-06T00:53:32.230Z,60.35
2018-09-06T00:56:01.532Z,60.88
2018-09-06T00:58:30.685Z,61.12
2018-09-06T01:00:59.885Z,60.79
2018-09-06T01:03:28.906Z,60.75
2018-09-06T01:05:57.927Z,61.04
2018-09-06T01:08:27.239Z,61.81
2018-09-06T01:10:56.607Z,61.96
2018-09-06T01:13:25.570Z,62.09
2018-09-06T01:15:55.102Z,61.17
2018-09-06T01:18:24.131Z,61.33
2018-09-06T01:20:53.387Z,61.67
2018-09-06T01:23:22.647Z,60.94
2018-09-06T01:25:52.035Z,61.77
2018-09-06T01:28:21.845Z,61.25
2018-09-06T01:30:51.259Z,61.25
2018-09-06T01:33:20.522Z,61.67
2018-09-06T01:35:54.745Z,61.44
2018-09-06T01:38:23.924Z,60.73
2018-09-06T01:40:53.349Z,60.84
2018-09-06T01:43:22.615Z,60.56
2018-09-06T01:45:51.804Z,60.80
2018-09-06T01:48:21.040Z,61.03
2018-09-06T01:50:50.195Z,61.12
2018-09-06T01:53:19.512Z,60.86
2018-09-06T01:55:48.964Z,61.08
2018-09-06T01:58:18.191Z,61.32
2018-09-06T02:00:47.664Z,61.12
2018-09-06T02:03:16.620Z,60.73
2018-09-06T02:05:45.890Z,60.68
2018-09-06T02:08:15.198Z,59.99
2018-09-06T02:10:44.281Z,60.01
2018-09-06T02:13:13.604Z,59.83
2018-09-06T02:15:42.883Z,60.30
2018-09-06T02:18:11.911Z,60.29
2018-09-06T02:20:41.080Z,59.41
2018-09-06T02:23:10.367Z,58.87
2018-09-06T02:25:39.536Z,58.82
2018-09-06T02:28:08.968Z,59.10
2018-09-06T02:30:38.163Z,59.01
2018-09-06T02:33:07.182Z,58.45
2018-09-06T02:35:36.280Z,58.93
2018-09-06T02:38:05.552Z,59.81
2018-09-06T02:40:38.724Z,58.72
2018-09-06T02:43:09.197Z,58.60
2018-09-06T02:45:38.435Z,59.41
2018-09-06T02:48:07.751Z,58.65
2018-09-06T02:50:42.333Z,59.48
2018-09-06T02:53:11.539Z,59.29
2018-09-06T02:55:40.971Z,58.78
2018-09-06T02:58:10.219Z,59.66
2018-09-06T03:00:39.943Z,59.45
2018-09-06T03:03:09.169Z,59.59
2018-09-06T03:05:38.496Z,60.01
2018-09-06T03:08:07.409Z,60.40
2018-09-06T03:10:43.588Z,60.35
2018-09-06T03:13:13.091Z,59.50
2018-09-06T03:15:42.561Z,59.63
2018-09-06T03:18:11.879Z,59.58
2018-09-06T03:20:40.999Z,60.29
2018-09-06T03:23:10.136Z,60.30
2018-09-06T03:25:39.291Z,60.63
2018-09-06T03:28:08.783Z,60.56
2018-09-06T03:30:38.083Z,59.61
2018-09-06T03:33:07.436Z,59.98
2018-09-06T03:35:36.640Z,60.25
2018-09-06T03:38:05.953Z,60.45
2018-09-06T03:40:34.923Z,60.23
2018-09-06T03:43:03.983Z,60.35
2018-09-06T03:45:33.267Z,60.75
2018-09-06T03:48:02.661Z,60.74
2018-09-06T03:50:32.143Z,59.98
2018-09-06T03:53:01.786Z,60.31
2018-09-06T03:55:30.750Z,60.29
2018-09-06T03:57:59.867Z,60.88
2018-09-06T04:00:29.227Z,60.06
2018-09-06T04:02:58.402Z,60.56
2018-09-06T04:05:27.843Z,60.75
2018-09-06T04:07:57.263Z,60.54
2018-09-06T04:10:26.567Z,60.40
2018-09-06T04:12:55.682Z,60.17
2018-09-06T04:15:25.048Z,60.33
2018-09-06T04:17:54.307Z,60.26
2018-09-06T04:20:23.685Z,59.61
2018-09-06T04:22:53.255Z,59.97
2018-09-06T04:25:22.339Z,60.33
2018-09-06T04:27:51.809Z,60.06
2018-09-06T04:30:21.047Z,59.77
2018-09-06T04:32:50.204Z,59.98
2018-09-06T04:35:19.669Z,59.91
2018-09-06T04:37:49.072Z,59.38
2018-09-06T04:40:18.402Z,59.59
2018-09-06T04:42:47.564Z,58.82
2018-09-06T04:45:16.645Z,59.66
2018-09-06T04:47:45.856Z,59.70
2018-09-06T04:50:15.181Z,58.89
2018-09-06T04:52:44.348Z,58.84
2018-09-06T04:55:13.753Z,59.62
2018-09-06T04:57:43.040Z,58.49
2018-09-06T05:00:12.475Z,59.23
2018-09-06T05:02:41.941Z,59.08
2018-09-06T05:05:11.127Z,58.69
2018-09-06T05:07:40.216Z,58.73
2018-09-06T05:10:09.588Z,59.24
2018-09-06T05:12:38.754Z,58.04
2018-09-06T05:15:08.166Z,57.96
2018-09-06T05:17:37.767Z,58.12
2018-09-06T05:20:06.956Z,58.36
2018-09-06T05:22:35.980Z,57.46
2018-09-06T05:25:05.435Z,57.47
2018-09-06T05:27:34.634Z,57.26
2018-09-06T05:30:03.989Z,57.08
2018-09-06T05:32:33.325Z,57.19
2018-09-06T05:35:02.547Z,56.48
2018-09-06T05:37:31.921Z,56.92
2018-09-06T05:40:01.430Z,56.62
2018-09-06T05:42:30.618Z,57.59
2018-09-06T05:45:00.038Z,56.47
2018-09-06T05:47:29.256Z,56.96
2018-09-06T05:49:58.480Z,56.58
2018-09-06T05:52:27.447Z,56.38
2018-09-06T05:54:56.531Z,56.08
2018-09-06T05:57:25.821Z,55.95
2018-09-06T05:59:54.667Z,56.34
2018-09-06T06:02:23.989Z,55.74
2018-09-06T06:04:52.919Z,56.16
2018-09-06T06:07:23.437Z,55.46
2018-09-06T06:09:52.405Z,57.01
2018-09-06T06:12:21.484Z,56.18
2018-09-06T06:14:50.499Z,56.06
2018-09-06T06:17:19.660Z,56.01
2018-09-06T06:19:49.018Z,55.56
2018-09-06T06:22:18.143Z,54.59
2018-09-06T06:24:47.588Z,55.48
2018-09-06T06:27:16.900Z,54.64
2018-09-06T06:29:46.383Z,53.96
2018-09-06T06:32:15.794Z,55.04
2018-09-06T06:34:44.934Z,54.42
2018-09-06T06:37:14.078Z,54.10
2018-09-06T06:39:43.271Z,53.43
2018-09-06T06:42:12.688Z,54.27
2018-09-06T06:44:41.880Z,53.42
2018-09-06T06:47:11.135Z,53.29
2018-09-06T06:49:40.336Z,53.59
2018-09-06T06:52:09.519Z,54.00
2018-09-06T06:54:38.811Z,53.78
2018-09-06T06:57:08.232Z,52.38
2018-09-06T06:59:37.168Z,51.57
2018-09-06T07:02:06.412Z,51.69
2018-09-06T07:04:35.615Z,50.72
2018-09-06T07:07:04.845Z,51.26
2018-09-06T07:09:34.000Z,50.94
2018-09-06T07:12:03.441Z,50.17
2018-09-06T07:14:32.658Z,50.37
2018-09-06T07:17:02.576Z,49.72
2018-09-06T07:19:31.667Z,49.85
2018-09-06T07:22:00.845Z,49.68
2018-09-06T07:24:29.956Z,50.53
2018-09-06T07:26:59.195Z,49.88
2018-09-06T07:29:28.367Z,49.54
2018-09-06T07:31:57.734Z,49.99
2018-09-06T07:34:27.119Z,49.31
2018-09-06T07:36:56.012Z,50.12
2018-09-06T07:39:25.432Z,49.04
2018-09-06T07:41:54.304Z,49.36
2018-09-06T07:44:23.555Z,48.13
2018-09-06T07:46:52.845Z,47.79
2018-09-06T07:49:21.743Z,47.13
2018-09-06T07:51:50.996Z,45.62
2018-09-06T07:54:20.247Z,44.86
2018-09-06T07:56:49.592Z,43.41
2018-09-06T07:59:18.756Z,42.47
2018-09-06T08:01:47.653Z,43.11
2018-09-06T08:04:17.158Z,43.27
2018-09-06T08:06:46.183Z,43.78
2018-09-06T08:09:15.072Z,44.25
2018-09-06T08:11:44.478Z,45.43
2018-09-06T08:14:13.761Z,46.04
2018-09-06T08:16:42.939Z,45.95
2018-09-06T08:19:12.539Z,45.78
2018-09-06T08:21:41.456Z,44.33
2018-09-06T08:24:10.500Z,45.04
2018-09-06T08:26:39.961Z,44.27
2018-09-06T08:29:09.175Z,44.91
2018-09-06T08:31:38.503Z,45.49
2018-09-06T08:34:07.395Z,44.77
2018-09-06T08:36:36.551Z,44.54
2018-09-06T08:39:08.193Z,43.87
2018-09-06T08:41:37.955Z,42.96
2018-09-06T08:44:07.021Z,44.77
2018-09-06T08:46:36.308Z,44.23
2018-09-06T08:49:05.506Z,44.43
2018-09-06T08:51:34.844Z,46.39
2018-09-06T08:54:04.028Z,45.47
2018-09-06T08:56:33.052Z,45.81
2018-09-06T08:59:02.484Z,43.90
2018-09-06T09:01:36.479Z,42.40
2018-09-06T09:04:05.704Z,42.52
2018-09-06T09:06:34.896Z,41.83
2018-09-06T09:09:05.616Z,41.73
2018-09-06T09:11:34.914Z,41.64
2018-09-06T09:14:04.252Z,40.96
2018-09-06T09:16:33.516Z,39.99
2018-09-06T09:19:02.808Z,41.08
2018-09-06T09:21:32.272Z,39.93
2018-09-06T09:24:01.250Z,40.93
2018-09-06T09:26:30.709Z,41.41
2018-09-06T09:28:59.780Z,40.37
2018-09-06T09:31:29.059Z,39.60
2018-09-06T09:33:58.339Z,37.27
2018-09-06T09:36:27.705Z,37.17
2018-09-06T09:38:56.904Z,34.85
2018-09-06T09:41:25.990Z,33.47
2018-09-06T09:43:55.406Z,33.36
2018-09-06T09:48:53.007Z,32.94
2018-09-06T09:51:22.036Z,33.56
2018-09-06T09:53:51.290Z,34.79
2018-09-06T09:56:20.703Z,35.09
2018-09-06T09:58:49.740Z,34.48
2018-09-06T10:01:19.188Z,34.15
2018-09-06T10:03:53.696Z,34.98
2018-09-06T10:06:27.998Z,34.86
2018-09-06T10:09:02.208Z,31.74
2018-09-06T10:11:31.513Z,28.13
2018-09-06T10:14:00.864Z,26.32
2018-09-06T10:16:29.940Z,24.80
2018-09-06T10:18:59.018Z,23.29
2018-09-06T10:21:28.119Z,21.04
2018-09-06T10:23:57.351Z,19.70
2018-09-06T10:26:27.784Z,18.42
2018-09-06T10:28:57.112Z,17.92
2018-09-06T10:31:26.509Z,17.60
2018-09-06T10:33:55.763Z,16.41
2018-09-06T10:36:24.984Z,16.08
2018-09-06T10:38:54.260Z,15.26
2018-09-06T10:41:23.465Z,14.95
2018-09-06T10:43:52.583Z,16.78
2018-09-06T10:46:21.856Z,18.80
2018-09-06T10:48:50.891Z,21.62
2018-09-06T10:51:20.380Z,23.93
2018-09-06T10:53:49.840Z,25.13
2018-09-06T10:56:19.343Z,25.43
2018-09-06T10:58:48.402Z,26.37
2018-09-06T11:01:22.176Z,27.66
2018-09-06T11:03:53.650Z,25.58
2018-09-06T11:06:23.063Z,25.63
2018-09-06T11:08:52.334Z,24.86
2018-09-06T11:11:21.765Z,23.51
2018-09-06T11:13:50.743Z,24.06
2018-09-06T11:16:20.650Z,21.91
2018-09-06T11:18:50.053Z,22.10
2018-09-06T11:21:19.503Z,19.59
2018-09-06T11:23:48.760Z,20.17
2018-09-06T11:26:17.716Z,21.28
2018-09-06T11:28:46.855Z,22.45
2018-09-06T11:31:15.935Z,23.72
2018-09-06T11:33:45.387Z,22.92
2018-09-06T11:36:14.456Z,22.11
2018-09-06T11:38:44.136Z,19.81
2018-09-06T11:41:13.413Z,18.14
2018-09-06T11:43:42.733Z,17.01
2018-09-06T11:46:11.731Z,16.38
2018-09-06T11:48:41.241Z,15.24
2018-09-06T11:51:10.626Z,14.20
2018-09-06T11:53:39.732Z,14.58
2018-09-06T11:56:09.152Z,14.09
2018-09-06T11:58:38.453Z,13.91
2018-09-06T12:01:07.628Z,13.06
2018-09-06T12:03:37.050Z,14.48
2018-09-06T12:06:06.115Z,15.63
2018-09-06T12:08:35.436Z,15.52
2018-09-06T12:11:04.675Z,14.48
2018-09-06T12:13:34.053Z,14.14
2018-09-06T12:16:02.946Z,13.10
2018-09-06T12:18:32.399Z,13.08
2018-09-06T12:21:01.760Z,14.36
2018-09-06T12:23:31.014Z,15.56
2018-09-06T12:26:00.228Z,15.33
2018-09-06T12:28:29.496Z,14.69
2018-09-06T12:30:58.787Z,15.50
2018-09-06T12:33:28.455Z,16.78
2018-09-06T12:35:57.818Z,16.77
2018-09-06T12:38:26.760Z,15.70
2018-09-06T12:40:55.712Z,15.79
2018-09-06T12:43:24.786Z,16.37
2018-09-06T12:45:54.237Z,16.34
2018-09-06T12:48:23.596Z,16.06
2018-09-06T12:50:52.948Z,15.59
2018-09-06T12:53:22.244Z,16.62
2018-09-06T12:55:51.295Z,17.18
2018-09-06T12:58:20.577Z,16.97
2018-09-06T13:00:49.777Z,15.53
2018-09-06T13:03:19.236Z,15.25
2018-09-06T13:05:48.725Z,15.23
2018-09-06T13:08:18.135Z,15.54
2018-09-06T13:10:47.196Z,16.09
2018-09-06T13:13:16.597Z,16.04
2018-09-06T13:15:45.716Z,15.55
2018-09-06T13:18:14.835Z,14.44
2018-09-06T13:20:44.283Z,15.16
2018-09-06T13:23:13.180Z,16.91
2018-09-06T13:25:42.574Z,19.06
2018-09-06T13:28:11.943Z,21.23
2018-09-06T13:30:41.219Z,22.67
2018-09-06T13:33:10.486Z,23.11
2018-09-06T13:35:39.693Z,22.69
2018-09-06T13:38:08.919Z,22.63
2018-09-06T13:40:38.104Z,22.77
2018-09-06T13:43:07.099Z,22.77
2018-09-06T13:45:36.100Z,22.81
2018-09-06T13:48:05.479Z,22.88
2018-09-06T13:50:34.641Z,24.01
2018-09-06T13:53:04.028Z,24.55
2018-09-06T13:55:32.862Z,24.94
2018-09-06T13:58:02.114Z,25.11
2018-09-06T14:00:31.573Z,25.74
2018-09-06T14:03:00.601Z,25.61
2018-09-06T14:05:29.775Z,26.27
2018-09-06T14:07:58.965Z,26.25
2018-09-06T14:10:28.206Z,26.87
2018-09-06T14:12:57.532Z,27.97
2018-09-06T14:15:26.705Z,27.29
2018-09-06T14:17:55.663Z,28.58
2018-09-06T14:20:24.764Z,29.02
2018-09-06T14:22:53.894Z,29.02
2018-09-06T14:25:23.086Z,29.53
2018-09-06T14:27:52.286Z,30.10
2018-09-06T14:30:21.176Z,29.52
2018-09-06T14:32:50.229Z,29.17
2018-09-06T14:35:19.505Z,29.82
2018-09-06T14:37:48.676Z,30.28
2018-09-06T14:40:17.798Z,29.64
2018-09-06T14:42:46.937Z,31.11
2018-09-06T14:45:16.591Z,29.69
2018-09-06T14:47:46.113Z,29.96
2018-09-06T14:50:15.431Z,29.34
2018-09-06T14:52:44.984Z,29.82
2018-09-06T14:55:14.147Z,30.65
2018-09-06T14:57:43.386Z,31.88
2018-09-06T15:00:12.777Z,31.70
2018-09-06T15:02:42.062Z,32.12
2018-09-06T15:05:11.191Z,32.50
2018-09-06T15:07:40.144Z,32.38
2018-09-06T15:10:09.345Z,32.47
2018-09-06T15:12:38.619Z,32.42
2018-09-06T15:15:07.934Z,33.71
2018-09-06T15:17:37.332Z,33.36
2018-09-06T15:20:06.473Z,33.59
2018-09-06T15:22:35.423Z,32.99
2018-09-06T15:25:04.642Z,32.07
2018-09-06T15:27:33.896Z,33.19
2018-09-06T15:30:03.212Z,33.27
2018-09-06T15:32:32.455Z,33.82
2018-09-06T15:35:01.864Z,33.61
2018-09-06T15:37:31.195Z,33.50
2018-09-06T15:40:00.464Z,33.27
2018-09-06T15:42:29.906Z,34.40
2018-09-06T15:44:59.251Z,34.34
2018-09-06T15:47:28.408Z,34.94
2018-09-06T15:49:57.546Z,34.71
2018-09-06T15:52:26.847Z,35.53
2018-09-06T15:54:55.923Z,36.39
2018-09-06T15:57:24.992Z,36.17
2018-09-06T15:59:54.496Z,36.46
2018-09-06T16:02:23.793Z,36.39
2018-09-06T16:04:53.140Z,35.48
2018-09-06T16:07:22.509Z,35.48
2018-09-06T16:09:51.809Z,36.76
2018-09-06T16:12:21.081Z,36.07
2018-09-06T16:14:50.327Z,37.65
2018-09-06T16:17:19.524Z,38.20
2018-09-06T16:19:49.011Z,38.13
2018-09-06T16:22:17.805Z,37.42
2018-09-06T16:24:47.227Z,38.01
2018-09-06T16:27:16.463Z,38.47
2018-09-06T16:29:45.693Z,39.25
2018-09-06T16:32:15.187Z,38.82
2018-09-06T16:34:44.524Z,39.18
2018-09-06T16:37:13.913Z,39.78
2018-09-06T16:39:43.271Z,40.37
2018-09-06T16:42:12.311Z,40.60
2018-09-06T16:44:41.381Z,40.54
2018-09-06T16:47:10.546Z,40.49
2018-09-06T16:49:39.805Z,42.22
2018-09-06T16:52:09.147Z,42.05
2018-09-06T16:54:38.505Z,42.58
2018-09-06T16:57:07.752Z,41.93
2018-09-06T16:59:37.020Z,41.78
2018-09-06T17:02:06.016Z,42.08
2018-09-06T17:04:35.174Z,42.82
2018-09-06T17:07:04.547Z,43.04
2018-09-06T17:09:33.804Z,42.74
2018-09-06T17:12:03.127Z,42.54
2018-09-06T17:14:32.538Z,43.27
2018-09-06T17:17:01.490Z,42.47
2018-09-06T17:19:30.625Z,43.29
2018-09-06T17:21:59.895Z,43.65
2018-09-06T17:24:29.125Z,43.59
2018-09-06T17:26:58.366Z,43.35
2018-09-06T17:29:27.593Z,43.30
2018-09-06T17:31:56.795Z,43.24
2018-09-06T17:34:25.927Z,44.00
2018-09-06T17:36:54.920Z,43.04
2018-09-06T17:39:24.249Z,42.88
2018-09-06T17:41:53.552Z,42.92
2018-09-06T17:44:22.697Z,43.33
2018-09-06T17:46:52.087Z,43.22
2018-09-06T17:49:21.452Z,44.34
2018-09-06T17:51:50.763Z,44.25
2018-09-06T17:54:20.174Z,43.55
2018-09-06T17:56:49.581Z,44.12
2018-09-06T17:59:18.766Z,44.25
2018-09-06T18:01:47.864Z,43.77
2018-09-06T18:04:16.996Z,44.28
2018-09-06T18:06:46.388Z,44.44
2018-09-06T18:09:16.929Z,44.19
2018-09-06T18:11:48.021Z,44.37
2018-09-06T18:14:17.155Z,43.93
2018-09-06T18:16:47.194Z,44.84
2018-09-06T18:19:16.568Z,43.63
2018-09-06T18:21:45.574Z,43.67
2018-09-06T18:24:14.794Z,43.67
2018-09-06T18:26:44.015Z,43.75
2018-09-06T18:29:13.306Z,44.36
2018-09-06T18:31:42.305Z,43.86
2018-09-06T18:34:11.748Z,43.96
2018-09-06T18:36:41.067Z,43.99
2018-09-06T18:39:10.511Z,44.01
2018-09-06T18:41:39.953Z,43.29
2018-09-06T18:44:09.529Z,43.96
2018-09-06T18:46:39.489Z,44.05
2018-09-06T18:49:10.732Z,43.89
2018-09-06T18:51:39.929Z,44.06
2018-09-06T18:54:09.016Z,43.65
2018-09-06T18:56:38.311Z,43.81
2018-09-06T18:59:07.711Z,44.43
2018-09-06T19:01:37.209Z,43.81
2018-09-06T19:04:06.559Z,44.44
2018-09-06T19:06:35.796Z,44.00
2018-09-06T19:09:06.534Z,44.81
2018-09-06T19:11:35.801Z,44.89
2018-09-06T19:14:05.028Z,45.15
2018-09-06T19:16:34.210Z,45.04
2018-09-06T19:19:03.343Z,44.17
2018-09-06T19:21:33.011Z,44.80
2018-09-06T19:24:02.179Z,44.50
2018-09-06T19:26:31.610Z,44.41
2018-09-06T19:29:00.959Z,45.28
2018-09-06T19:31:30.187Z,44.82
2018-09-06T19:33:59.651Z,45.26
2018-09-06T19:36:30.161Z,44.62
2018-09-06T19:38:59.341Z,45.35
2018-09-06T19:41:28.299Z,45.39
2018-09-06T19:43:58.133Z,46.08
2018-09-06T19:46:27.144Z,45.11
2018-09-06T19:48:56.431Z,45.88
2018-09-06T19:51:25.468Z,45.34
2018-09-06T19:53:54.807Z,45.18
2018-09-06T19:56:24.008Z,46.06
2018-09-06T19:58:53.207Z,45.41
2018-09-06T20:01:22.516Z,46.03
2018-09-06T20:03:51.531Z,46.41
2018-09-06T20:06:20.721Z,46.26
2018-09-06T20:08:49.657Z,45.94
2018-09-06T20:11:18.884Z,46.27
2018-09-06T20:13:48.124Z,45.91
2018-09-06T20:16:17.507Z,45.98
2018-09-06T20:18:46.403Z,45.90
2018-09-06T20:21:15.927Z,46.54
2018-09-06T20:23:45.259Z,46.57
2018-09-06T20:26:14.523Z,46.92
2018-09-06T20:28:43.862Z,46.32
2018-09-06T20:31:13.202Z,47.30
2018-09-06T20:33:42.601Z,47.45
2018-09-06T20:36:11.908Z,46.51
2018-09-06T20:38:41.107Z,47.49
2018-09-06T20:41:09.995Z,46.96
2018-09-06T20:43:39.390Z,47.35
2018-09-06T20:46:08.654Z,47.27
2018-09-06T20:48:37.979Z,47.64
2018-09-06T20:51:07.435Z,47.53
2018-09-06T20:53:36.907Z,47.95
2018-09-06T20:56:06.238Z,48.31
2018-09-06T20:58:35.460Z,48.06
2018-09-06T21:01:04.594Z,48.08
2018-09-06T21:03:33.674Z,47.68
2018-09-06T21:06:02.849Z,48.87
2018-09-06T21:08:32.036Z,48.34
2018-09-06T21:11:01.435Z,48.70
2018-09-06T21:13:30.403Z,48.19
2018-09-06T21:15:59.628Z,48.16
2018-09-06T21:18:28.551Z,48.97
2018-09-06T21:20:57.955Z,48.79
2018-09-06T21:23:26.992Z,48.48
2018-09-06T21:25:56.316Z,49.19
2018-09-06T21:28:25.555Z,48.76
2018-09-06T21:30:54.825Z,48.63
2018-09-06T21:33:24.100Z,48.67
2018-09-06T21:35:53.117Z,49.17
2018-09-06T21:38:22.431Z,48.61
2018-09-06T21:40:51.657Z,49.14
2018-09-06T21:43:20.860Z,48.75
2018-09-06T21:45:50.072Z,48.80
2018-09-06T21:48:19.271Z,48.65
2018-09-06T21:50:48.519Z,48.84
2018-09-06T21:53:17.755Z,49.39
2018-09-06T21:55:47.115Z,49.18
2018-09-06T21:58:16.567Z,49.29
2018-09-06T22:00:45.999Z,50.03
2018-09-06T22:03:20.052Z,49.26
2018-09-06T22:05:49.461Z,49.47
2018-09-06T22:08:18.738Z,50.13
2018-09-06T22:10:47.856Z,49.58
2018-09-06T22:13:17.067Z,49.29
2018-09-06T22:15:46.423Z,49.44
2018-09-06T22:18:15.495Z,49.91
2018-09-06T22:20:44.694Z,49.87
2018-09-06T22:23:14.083Z,49.39
2018-09-06T22:25:43.437Z,49.16
2018-09-06T22:28:12.564Z,49.40
2018-09-06T22:30:41.756Z,49.19
2018-09-06T22:33:10.752Z,49.43
2018-09-06T22:35:40.116Z,49.57
2018-09-06T22:38:09.483Z,49.45
2018-09-06T22:40:38.594Z,50.08
2018-09-06T22:43:07.993Z,49.66
2018-09-06T22:45:36.923Z,49.98
2018-09-06T22:48:06.398Z,49.69
2018-09-06T22:50:35.580Z,49.69
2018-09-06T22:53:04.940Z,49.96
2018-09-06T22:55:34.219Z,50.70
2018-09-06T22:58:03.495Z,50.07
2018-09-06T23:00:32.648Z,50.53
2018-09-06T23:04:09.668Z,50.91
2018-09-06T23:06:38.512Z,51.48
2018-09-06T23:09:09.098Z,50.59
2018-09-06T23:11:38.163Z,51.37
2018-09-06T23:14:07.527Z,50.78
2018-09-06T23:16:36.565Z,51.59
2018-09-06T23:19:05.878Z,51.38
2018-09-06T23:21:35.267Z,51.06
2018-09-06T23:24:04.326Z,51.17
2018-09-06T23:26:33.349Z,52.15
2018-09-06T23:29:02.288Z,51.52
2018-09-06T23:31:31.503Z,51.70
2018-09-06T23:34:00.796Z,51.87
2018-09-06T23:36:30.013Z,51.57
2018-09-06T23:38:59.504Z,51.73
2018-09-06T23:41:28.899Z,51.85
2018-09-06T23:43:58.340Z,51.58
2018-09-06T23:46:27.299Z,51.90
2018-09-06T23:48:56.263Z,51.81
2018-09-06T23:51:25.633Z,51.88
2018-09-06T23:53:54.870Z,51.78
2018-09-06T23:56:24.025Z,51.58
2018-09-06T23:58:53.370Z,51.75
